createdAt,value
2023-05-13T00:00:30.551Z,47.02
2023-05-13T00:01:35.709Z,47.01
2023-05-13T00:02:41.114Z,47.01
2023-05-13T00:03:47.066Z,47.02
2023-05-13T00:04:52.322Z,47.03
2023-05-13T00:05:57.533Z,47.04
2023-05-13T00:07:02.750Z,47.06
2023-05-13T00:08:07.924Z,47.07
2023-05-13T00:09:13.098Z,47.06
2023-05-13T00:10:18.285Z,47.05
2023-05-13T00:11:23.435Z,47.05
2023-05-13T00:12:28.598Z,47.05
2023-05-13T00:13:33.824Z,47.07
2023-05-13T00:14:39.050Z,47.05
2023-05-13T00:15:44.220Z,47.05
2023-05-13T00:16:49.553Z,47.05
2023-05-13T00:17:54.959Z,47.05
2023-05-13T00:19:00.250Z,47.06
2023-05-13T00:20:05.434Z,47.06
2023-05-13T00:21:10.657Z,47.06
2023-05-13T00:22:15.803Z,47.07
2023-05-13T00:23:21.034Z,47.07
2023-05-13T00:24:26.173Z,47.07
2023-05-13T00:25:31.334Z,47.07
2023-05-13T00:26:36.489Z,47.06
2023-05-13T00:27:41.664Z,47.06
2023-05-13T00:28:46.831Z,47.05
2023-05-13T00:29:52.024Z,47.06
2023-05-13T00:30:57.178Z,47.06
2023-05-13T00:32:02.597Z,47.07
2023-05-13T00:33:08.122Z,47.07
2023-05-13T00:34:13.352Z,47.06
2023-05-13T00:35:18.519Z,47.05
2023-05-13T00:36:23.726Z,47.06
2023-05-13T00:37:28.865Z,47.06
2023-05-13T00:38:34.113Z,47.06
2023-05-13T00:39:39.325Z,47.07
2023-05-13T00:40:44.651Z,47.06
2023-05-13T00:41:49.805Z,47.06
2023-05-13T00:42:55.048Z,47.06
2023-05-13T00:44:00.229Z,47.07
2023-05-13T00:45:05.489Z,47.06
2023-05-13T00:46:10.830Z,47.07
2023-05-13T00:47:16.111Z,47.06
2023-05-13T00:48:21.256Z,47.06
2023-05-13T00:49:26.396Z,47.08
2023-05-13T00:50:31.583Z,47.07
2023-05-13T00:51:36.781Z,47.05
2023-05-13T00:52:41.909Z,47.07
2023-05-13T00:53:47.071Z,47.07
2023-05-13T00:54:52.221Z,47.07
2023-05-13T00:55:57.397Z,47.07
2023-05-13T00:57:02.553Z,47.07
2023-05-13T00:58:07.711Z,47.05
2023-05-13T00:59:12.853Z,47.06
2023-05-13T01:00:18.035Z,47.07
2023-05-13T01:01:23.511Z,47.07
2023-05-13T01:02:28.993Z,47.07
2023-05-13T01:03:34.422Z,47.08
2023-05-13T01:04:39.648Z,47.07
2023-05-13T01:05:44.813Z,47.05
2023-05-13T01:06:50.036Z,47.08
2023-05-13T01:07:55.232Z,47.07
2023-05-13T01:09:00.368Z,47.06
2023-05-13T01:10:05.535Z,47.08
2023-05-13T01:11:10.708Z,47.08
2023-05-13T01:12:15.892Z,47.08
2023-05-13T01:13:21.072Z,47.08
2023-05-13T01:14:26.251Z,47.09
2023-05-13T01:15:31.452Z,47.08
2023-05-13T01:16:36.711Z,47.08
2023-05-13T01:17:42.043Z,47.08
2023-05-13T01:18:47.337Z,47.07
2023-05-13T01:19:52.581Z,47.07
2023-05-13T01:20:57.788Z,47.06
2023-05-13T01:22:02.991Z,47.05
2023-05-13T01:23:08.167Z,47.06
2023-05-13T01:24:13.442Z,47.07
2023-05-13T01:25:18.626Z,47.05
2023-05-13T01:26:23.805Z,47.06
2023-05-13T01:27:29.098Z,47.06
2023-05-13T01:28:34.292Z,47.06
2023-05-13T01:29:39.467Z,47.06
2023-05-13T01:30:44.625Z,47.07
2023-05-13T01:31:49.822Z,47.08
2023-05-13T01:32:55.150Z,47.07
2023-05-13T01:34:00.445Z,47.05
2023-05-13T01:35:05.632Z,47.06
2023-05-13T01:36:10.797Z,47.06
2023-05-13T01:37:15.986Z,47.06
2023-05-13T01:38:21.185Z,47.06
2023-05-13T01:39:26.343Z,47.06
2023-05-13T01:40:36.610Z,47.07
2023-05-13T01:41:41.894Z,47.07
2023-05-13T01:42:47.055Z,47.06
2023-05-13T01:43:52.361Z,47.06
2023-05-13T01:44:57.542Z,47.07
2023-05-13T01:46:02.943Z,47.06
2023-05-13T01:47:08.234Z,47.06
2023-05-13T01:48:13.420Z,47.05
2023-05-13T01:49:18.589Z,47.06
2023-05-13T01:50:24.505Z,47.08
2023-05-13T01:51:29.879Z,47.04
2023-05-13T01:52:35.023Z,47.09
2023-05-13T01:53:40.183Z,47.09
2023-05-13T01:54:45.389Z,47.12
2023-05-13T01:55:50.585Z,47.15
2023-05-13T01:56:55.735Z,47.22
2023-05-13T01:58:00.910Z,47.24
2023-05-13T01:59:06.077Z,47.25
2023-05-13T02:00:11.305Z,47.23
2023-05-13T02:01:16.621Z,47.23
2023-05-13T02:02:21.924Z,47.2
2023-05-13T02:03:27.584Z,47.2
2023-05-13T02:04:32.770Z,47.17
2023-05-13T02:05:38.005Z,47.15
2023-05-13T02:06:43.187Z,47.12
2023-05-13T02:07:48.391Z,47.12
2023-05-13T02:08:53.611Z,47.1
2023-05-13T02:09:58.792Z,47.09
2023-05-13T02:11:03.969Z,47.09
2023-05-13T02:12:09.145Z,47.08
2023-05-13T02:13:14.308Z,47.07
2023-05-13T02:14:19.498Z,47.06
2023-05-13T02:15:24.665Z,47.04
2023-05-13T02:16:30.066Z,47.05
2023-05-13T02:17:35.464Z,47.03
2023-05-13T02:18:40.778Z,47.05
2023-05-13T02:19:45.976Z,47.02
2023-05-13T02:20:51.266Z,47.02
2023-05-13T02:21:56.501Z,47.02
2023-05-13T02:23:01.745Z,47.01
2023-05-13T02:24:06.942Z,47.01
2023-05-13T02:25:12.107Z,47.01
2023-05-13T02:26:17.248Z,47.01
2023-05-13T02:27:22.499Z,47
2023-05-13T02:28:27.684Z,47
2023-05-13T02:29:32.855Z,47
2023-05-13T02:30:37.991Z,46.99
2023-05-13T02:31:43.413Z,47.02
2023-05-13T02:32:48.742Z,47.01
2023-05-13T02:33:53.940Z,47.01
2023-05-13T02:34:59.066Z,47
2023-05-13T02:36:04.291Z,47.01
2023-05-13T02:37:09.425Z,47
2023-05-13T02:38:14.620Z,47
2023-05-13T02:39:19.788Z,46.99
2023-05-13T02:40:25.432Z,47
2023-05-13T02:41:30.576Z,46.99
2023-05-13T02:42:35.795Z,46.99
2023-05-13T02:43:40.955Z,46.98
2023-05-13T02:44:46.129Z,46.98
2023-05-13T02:45:51.457Z,46.97
2023-05-13T02:46:56.645Z,46.97
2023-05-13T02:48:01.912Z,46.97
2023-05-13T02:49:07.125Z,46.97
2023-05-13T02:50:12.235Z,46.96
2023-05-13T02:51:17.419Z,46.96
2023-05-13T02:52:22.545Z,47.02
2023-05-13T02:53:27.682Z,46.98
2023-05-13T02:54:32.835Z,46.97
2023-05-13T02:55:38.037Z,47.01
2023-05-13T02:56:43.192Z,47.01
2023-05-13T02:57:48.373Z,47.02
2023-05-13T02:58:53.515Z,46.99
2023-05-13T02:59:58.683Z,47.02
2023-05-13T03:01:03.969Z,46.99
2023-05-13T03:02:09.301Z,47.01
2023-05-13T03:03:14.883Z,47.01
2023-05-13T03:04:20.133Z,47.01
2023-05-13T03:05:25.509Z,47.03
2023-05-13T03:06:31.194Z,47.02
2023-05-13T03:07:36.338Z,47.02
2023-05-13T03:08:41.500Z,47.02
2023-05-13T03:09:46.662Z,47
2023-05-13T03:10:51.842Z,47.02
2023-05-13T03:11:56.976Z,47.03
2023-05-13T03:13:02.109Z,47.02
2023-05-13T03:14:07.272Z,47.01
2023-05-13T03:15:12.441Z,47.02
2023-05-13T03:16:17.845Z,47.01
2023-05-13T03:17:23.170Z,47.03
2023-05-13T03:18:28.431Z,47.02
2023-05-13T03:19:33.612Z,47.03
2023-05-13T03:20:38.809Z,47.01
2023-05-13T03:21:43.976Z,47.03
2023-05-13T03:22:49.135Z,47.01
2023-05-13T03:23:54.386Z,47.05
2023-05-13T03:24:59.629Z,47.02
2023-05-13T03:26:04.884Z,47.01
2023-05-13T03:27:10.079Z,47.03
2023-05-13T03:28:15.212Z,47.04
2023-05-13T03:29:20.466Z,47.03
2023-05-13T03:30:25.942Z,47.04
2023-05-13T03:31:31.288Z,47.04
2023-05-13T03:32:36.615Z,47.06
2023-05-13T03:33:41.796Z,47.06
2023-05-13T03:34:46.974Z,47.04
2023-05-13T03:35:52.143Z,47.04
2023-05-13T03:36:57.328Z,47.04
2023-05-13T03:38:02.515Z,47.05
2023-05-13T03:39:07.684Z,47.04
2023-05-13T03:40:12.869Z,47.06
2023-05-13T03:41:18.155Z,47.06
2023-05-13T03:42:23.360Z,47.06
2023-05-13T03:43:28.561Z,47.06
2023-05-13T03:44:33.711Z,47.06
2023-05-13T03:45:38.877Z,47.09
2023-05-13T03:46:44.155Z,47.16
2023-05-13T03:47:49.463Z,47.17
2023-05-13T03:48:54.651Z,47.16
2023-05-13T03:49:59.852Z,47.21
2023-05-13T03:51:05.090Z,47.16
2023-05-13T03:52:10.269Z,47.14
2023-05-13T03:53:15.463Z,47.13
2023-05-13T03:54:20.639Z,47.12
2023-05-13T03:55:25.804Z,47.12
2023-05-13T03:56:31.035Z,47.1
2023-05-13T03:57:36.233Z,47.1
2023-05-13T03:58:41.459Z,47.1
2023-05-13T03:59:46.655Z,47.11
2023-05-13T04:00:51.840Z,47.1
2023-05-13T04:01:57.307Z,47.1
2023-05-13T04:03:02.644Z,47.09
2023-05-13T04:04:07.837Z,47.1
2023-05-13T04:05:13.172Z,47.12
2023-05-13T04:06:18.488Z,47.1
2023-05-13T04:07:23.668Z,47.12
2023-05-13T04:08:28.818Z,47.11
2023-05-13T04:09:33.993Z,47.12
2023-05-13T04:10:39.173Z,47.13
2023-05-13T04:11:44.350Z,47.12
2023-05-13T04:12:49.533Z,47.11
2023-05-13T04:13:54.701Z,47.11
2023-05-13T04:14:59.932Z,47.13
2023-05-13T04:16:05.138Z,47.14
2023-05-13T04:17:10.513Z,47.15
2023-05-13T04:18:15.819Z,47.15
2023-05-13T04:19:21.205Z,47.16
2023-05-13T04:20:26.739Z,47.16
2023-05-13T04:21:31.925Z,47.18
2023-05-13T04:22:37.118Z,47.17
2023-05-13T04:23:42.289Z,47.18
2023-05-13T04:24:47.460Z,47.18
2023-05-13T04:25:52.689Z,47.17
2023-05-13T04:26:59.518Z,47.2
2023-05-13T04:28:06.342Z,47.19
2023-05-13T04:29:11.529Z,47.18
2023-05-13T04:30:16.826Z,47.17
2023-05-13T04:31:22.118Z,47.18
2023-05-13T04:32:27.439Z,47.19
2023-05-13T04:33:32.630Z,47.2
2023-05-13T04:34:37.801Z,47.21
2023-05-13T04:35:43.021Z,47.21
2023-05-13T04:36:48.176Z,47.23
2023-05-13T04:37:53.388Z,47.23
2023-05-13T04:38:58.559Z,47.24
2023-05-13T04:40:03.797Z,47.23
2023-05-13T04:41:08.943Z,47.23
2023-05-13T04:42:14.095Z,47.23
2023-05-13T04:43:19.271Z,47.25
2023-05-13T04:44:24.462Z,47.24
2023-05-13T04:45:29.651Z,47.24
2023-05-13T04:46:35.029Z,47.26
2023-05-13T04:47:40.444Z,47.26
2023-05-13T04:48:46.457Z,47.28
2023-05-13T04:49:52.583Z,47.28
2023-05-13T04:50:59.027Z,47.27
2023-05-13T04:52:04.549Z,47.32
2023-05-13T04:53:09.715Z,47.32
2023-05-13T04:54:14.891Z,47.31
2023-05-13T04:55:20.103Z,47.35
2023-05-13T04:56:25.303Z,47.36
2023-05-13T04:57:30.504Z,47.35
2023-05-13T04:58:35.658Z,47.36
2023-05-13T04:59:40.857Z,47.35
2023-05-13T05:00:46.031Z,47.36
2023-05-13T05:01:51.308Z,47.37
2023-05-13T05:02:56.696Z,47.4
2023-05-13T05:04:02.039Z,47.47
2023-05-13T05:05:07.217Z,47.49
2023-05-13T05:06:12.391Z,47.52
2023-05-13T05:07:17.547Z,47.57
2023-05-13T05:08:22.730Z,47.58
2023-05-13T05:09:27.908Z,47.6
2023-05-13T05:10:33.120Z,47.6
2023-05-13T05:11:38.266Z,47.63
2023-05-13T05:12:43.487Z,47.66
2023-05-13T05:13:48.683Z,47.65
2023-05-13T05:14:53.845Z,47.65
2023-05-13T05:15:59.049Z,47.65
2023-05-13T05:17:04.336Z,47.7
2023-05-13T05:18:10.264Z,47.7
2023-05-13T05:19:15.909Z,47.74
2023-05-13T05:20:21.642Z,47.76
2023-05-13T05:21:26.972Z,47.78
2023-05-13T05:22:32.134Z,47.79
2023-05-13T05:23:37.348Z,47.8
2023-05-13T05:24:42.527Z,47.81
2023-05-13T05:25:49.790Z,47.87
2023-05-13T05:26:56.452Z,47.87
2023-05-13T05:28:01.625Z,47.88
2023-05-13T05:29:06.817Z,47.89
2023-05-13T05:30:12.158Z,47.89
2023-05-13T05:31:17.529Z,47.89
2023-05-13T05:32:22.836Z,47.91
2023-05-13T05:33:28.013Z,47.95
2023-05-13T05:34:33.191Z,47.95
2023-05-13T05:35:38.430Z,48.01
2023-05-13T05:36:43.651Z,48.02
2023-05-13T05:37:48.839Z,48.03
2023-05-13T05:38:54.016Z,48.05
2023-05-13T05:39:59.231Z,48.09
2023-05-13T05:41:04.464Z,48.11
2023-05-13T05:42:09.638Z,48.1
2023-05-13T05:43:14.853Z,48.13
2023-05-13T05:44:20.003Z,48.22
2023-05-13T05:45:25.198Z,48.08
2023-05-13T05:46:30.696Z,48.24
2023-05-13T05:47:36.028Z,48.43
2023-05-13T05:48:41.238Z,48.5
2023-05-13T05:49:46.520Z,48.57
2023-05-13T05:50:51.716Z,48.59
2023-05-13T05:51:56.889Z,48.59
2023-05-13T05:53:02.188Z,48.64
2023-05-13T05:54:07.333Z,48.64
2023-05-13T05:55:12.514Z,48.65
2023-05-13T05:56:17.770Z,48.65
2023-05-13T05:57:23.031Z,48.63
2023-05-13T05:58:28.553Z,48.69
2023-05-13T05:59:33.722Z,48.69
2023-05-13T06:00:38.896Z,48.71
2023-05-13T06:01:44.068Z,48.73
2023-05-13T06:02:49.616Z,48.76
2023-05-13T06:03:57.677Z,48.75
2023-05-13T06:05:02.970Z,48.77
2023-05-13T06:06:08.133Z,48.77
2023-05-13T06:07:13.555Z,48.79
2023-05-13T06:08:18.771Z,48.8
2023-05-13T06:09:23.987Z,48.8
2023-05-13T06:10:29.274Z,48.82
2023-05-13T06:11:34.449Z,48.86
2023-05-13T06:12:39.614Z,48.91
2023-05-13T06:13:44.782Z,48.94
2023-05-13T06:14:49.972Z,48.87
2023-05-13T06:15:55.290Z,48.85
2023-05-13T06:17:00.809Z,48.88
2023-05-13T06:18:06.145Z,48.93
2023-05-13T06:19:11.550Z,48.96
2023-05-13T06:20:16.931Z,48.96
2023-05-13T06:21:22.078Z,48.97
2023-05-13T06:22:27.270Z,48.94
2023-05-13T06:23:32.418Z,49
2023-05-13T06:24:37.621Z,49.01
2023-05-13T06:25:42.779Z,49.02
2023-05-13T06:26:47.988Z,49.04
2023-05-13T06:27:53.138Z,49.03
2023-05-13T06:28:58.308Z,49.05
2023-05-13T06:30:03.487Z,49.06
2023-05-13T06:31:08.746Z,49.09
2023-05-13T06:32:13.946Z,49.11
2023-05-13T06:33:19.215Z,49.13
2023-05-13T06:34:24.488Z,49.15
2023-05-13T06:35:29.648Z,49.19
2023-05-13T06:36:34.845Z,49.21
2023-05-13T06:37:40.097Z,49.24
2023-05-13T06:38:45.304Z,49.25
2023-05-13T06:39:50.474Z,49.3
2023-05-13T06:40:55.665Z,49.34
2023-05-13T06:42:00.843Z,49.36
2023-05-13T06:43:06.034Z,49.42
2023-05-13T06:44:11.239Z,49.44
2023-05-13T06:45:16.419Z,49.45
2023-05-13T06:46:21.732Z,49.31
2023-05-13T06:47:27.139Z,49.42
2023-05-13T06:48:32.368Z,49.46
2023-05-13T06:49:37.594Z,49.51
2023-05-13T06:50:42.754Z,49.61
2023-05-13T06:51:48.014Z,49.7
2023-05-13T06:52:53.167Z,49.71
2023-05-13T06:53:58.408Z,49.78
2023-05-13T06:55:03.615Z,49.86
2023-05-13T06:56:08.793Z,49.87
2023-05-13T06:57:13.966Z,49.87
2023-05-13T06:58:19.165Z,49.97
2023-05-13T06:59:24.323Z,50.04
2023-05-13T07:00:29.503Z,50.06
2023-05-13T07:01:34.913Z,50.15
2023-05-13T07:02:40.211Z,50.16
2023-05-13T07:03:45.708Z,50.24
2023-05-13T07:04:50.910Z,50.3
2023-05-13T07:05:56.084Z,50.34
2023-05-13T07:07:01.457Z,50.39
2023-05-13T07:08:06.634Z,50.46
2023-05-13T07:09:11.957Z,50.53
2023-05-13T07:10:17.197Z,50.55
2023-05-13T07:11:22.400Z,50.56
2023-05-13T07:12:30.200Z,50.24
2023-05-13T07:13:35.378Z,50.59
2023-05-13T07:14:40.650Z,50.55
2023-05-13T07:15:45.818Z,50.63
2023-05-13T07:16:51.254Z,50.69
2023-05-13T07:17:56.567Z,50.69
2023-05-13T07:19:01.977Z,50.69
2023-05-13T07:20:07.154Z,50.73
2023-05-13T07:21:12.361Z,50.7
2023-05-13T07:22:17.545Z,50.76
2023-05-13T07:23:22.723Z,50.76
2023-05-13T07:24:27.956Z,50.74
2023-05-13T07:25:33.196Z,50.79
2023-05-13T07:26:38.346Z,50.77
2023-05-13T07:27:43.582Z,50.76
2023-05-13T07:28:48.782Z,50.82
2023-05-13T07:29:53.978Z,50.79
2023-05-13T07:30:59.496Z,50.81
2023-05-13T07:32:04.697Z,50.87
2023-05-13T07:33:10.115Z,50.83
2023-05-13T07:34:15.357Z,50.85
2023-05-13T07:35:20.874Z,50.91
2023-05-13T07:36:26.294Z,50.89
2023-05-13T07:37:31.444Z,50.91
2023-05-13T07:38:36.598Z,50.9
2023-05-13T07:39:41.747Z,50.92
2023-05-13T07:40:46.948Z,50.94
2023-05-13T07:41:52.547Z,50.92
2023-05-13T07:42:57.761Z,50.92
2023-05-13T07:44:02.953Z,50.94
2023-05-13T07:45:11.022Z,50.91
2023-05-13T07:46:16.236Z,50.9
2023-05-13T07:47:21.789Z,50.91
2023-05-13T07:48:27.076Z,50.91
2023-05-13T07:49:32.478Z,50.92
2023-05-13T07:50:37.680Z,50.93
2023-05-13T07:51:42.914Z,50.92
2023-05-13T07:52:48.090Z,50.92
2023-05-13T07:53:53.392Z,50.87
2023-05-13T07:54:58.582Z,50.84
2023-05-13T07:56:03.851Z,50.83
2023-05-13T07:57:09.081Z,50.81
2023-05-13T07:58:14.328Z,50.78
2023-05-13T07:59:19.572Z,50.77
2023-05-13T08:00:24.850Z,50.78
2023-05-13T08:01:30.071Z,50.76
2023-05-13T08:02:35.494Z,50.74
2023-05-13T08:03:41.449Z,50.74
2023-05-13T08:04:46.889Z,50.7
2023-05-13T08:05:52.099Z,50.68
2023-05-13T08:06:57.284Z,50.66
2023-05-13T08:08:02.473Z,50.66
2023-05-13T08:09:10.898Z,50.62
2023-05-13T08:10:16.075Z,50.64
2023-05-13T08:11:21.271Z,50.62
2023-05-13T08:12:26.454Z,50.62
2023-05-13T08:13:31.610Z,50.62
2023-05-13T08:14:36.794Z,50.59
2023-05-13T08:15:42.046Z,50.62
2023-05-13T08:16:47.621Z,50.76
2023-05-13T08:17:53.058Z,50.72
2023-05-13T08:18:58.387Z,50.72
2023-05-13T08:20:05.005Z,50.74
2023-05-13T08:21:10.204Z,50.74
2023-05-13T08:22:15.666Z,50.79
2023-05-13T08:23:20.915Z,50.78
2023-05-13T08:24:26.189Z,50.83
2023-05-13T08:25:31.419Z,50.83
2023-05-13T08:26:36.602Z,50.86
2023-05-13T08:27:41.854Z,50.89
2023-05-13T08:28:48.005Z,50.88
2023-05-13T08:29:53.337Z,50.98
2023-05-13T08:30:58.623Z,51
2023-05-13T08:32:04.016Z,50.83
2023-05-13T08:33:09.444Z,51.03
2023-05-13T08:34:14.633Z,51.21
2023-05-13T08:35:19.951Z,51.19
2023-05-13T08:36:25.261Z,51.19
2023-05-13T08:37:30.450Z,51.23
2023-05-13T08:38:35.645Z,51.26
2023-05-13T08:39:40.832Z,51.27
2023-05-13T08:40:45.985Z,51.26
2023-05-13T08:41:51.191Z,51.35
2023-05-13T08:42:56.404Z,51.38
2023-05-13T08:44:01.624Z,51.38
2023-05-13T08:45:06.850Z,51.63
2023-05-13T08:46:12.266Z,51.51
2023-05-13T08:47:17.570Z,51.62
2023-05-13T08:48:22.910Z,51.65
2023-05-13T08:49:28.113Z,51.61
2023-05-13T08:50:33.432Z,51.62
2023-05-13T08:51:38.730Z,51.7
2023-05-13T08:52:44.105Z,51.69
2023-05-13T08:53:49.392Z,51.7
2023-05-13T08:54:54.588Z,51.66
2023-05-13T08:55:59.904Z,51.67
2023-05-13T08:57:05.128Z,51.69
2023-05-13T08:58:10.509Z,51.67
2023-05-13T08:59:16.069Z,51.69
2023-05-13T09:00:24.103Z,51.71
2023-05-13T09:01:29.686Z,51.73
2023-05-13T09:02:35.119Z,51.75
2023-05-13T09:03:40.555Z,51.76
2023-05-13T09:04:47.607Z,51.77
2023-05-13T09:05:52.986Z,51.78
2023-05-13T09:07:01.459Z,51.77
2023-05-13T09:08:06.672Z,51.78
2023-05-13T09:09:11.908Z,51.79
2023-05-13T09:10:18.735Z,51.82
2023-05-13T09:11:24.757Z,51.81
2023-05-13T09:12:30.112Z,51.82
2023-05-13T09:13:35.576Z,51.81
2023-05-13T09:14:41.109Z,51.86
2023-05-13T09:15:46.624Z,51.91
2023-05-13T09:16:52.250Z,51.86
2023-05-13T09:17:58.255Z,51.88
2023-05-13T09:19:03.972Z,51.87
2023-05-13T09:20:09.414Z,51.87
2023-05-13T09:21:15.398Z,51.86
2023-05-13T09:22:21.270Z,51.9
2023-05-13T09:23:26.835Z,51.89
2023-05-13T09:24:32.472Z,51.89
2023-05-13T09:25:37.777Z,51.9
2023-05-13T09:26:43.189Z,51.91
2023-05-13T09:27:51.325Z,51.91
2023-05-13T09:28:56.630Z,51.88
2023-05-13T09:30:02.086Z,51.9
2023-05-13T09:31:07.480Z,51.92
2023-05-13T09:32:12.970Z,51.93
2023-05-13T09:33:18.487Z,51.91
2023-05-13T09:34:23.864Z,51.94
2023-05-13T09:35:29.352Z,51.96
2023-05-13T09:36:35.180Z,51.94
2023-05-13T09:37:40.592Z,51.94
2023-05-13T09:38:45.895Z,51.95
2023-05-13T09:39:51.312Z,51.91
2023-05-13T09:40:58.907Z,51.97
2023-05-13T09:42:06.438Z,51.96
2023-05-13T09:43:12.010Z,51.96
2023-05-13T09:44:17.448Z,51.97
2023-05-13T09:45:23.551Z,51.96
2023-05-13T09:46:29.087Z,51.98
2023-05-13T09:47:34.364Z,51.97
2023-05-13T09:48:39.688Z,51.99
2023-05-13T09:49:44.935Z,52.01
2023-05-13T09:50:50.409Z,52
2023-05-13T09:51:55.615Z,51.98
2023-05-13T09:53:00.788Z,51.96
2023-05-13T09:54:06.022Z,51.94
2023-05-13T09:55:11.504Z,51.95
2023-05-13T09:56:17.066Z,51.95
2023-05-13T09:57:22.446Z,51.97
2023-05-13T09:58:27.688Z,51.96
2023-05-13T09:59:33.004Z,51.97
2023-05-13T10:00:42.418Z,51.92
2023-05-13T10:01:48.237Z,52.03
2023-05-13T10:02:53.649Z,52
2023-05-13T10:03:58.988Z,52.02
2023-05-13T10:05:04.259Z,51.99
2023-05-13T10:06:09.457Z,51.97
2023-05-13T10:07:14.630Z,51.93
2023-05-13T10:08:19.792Z,51.89
2023-05-13T10:09:24.972Z,51.8
2023-05-13T10:10:30.149Z,51.72
2023-05-13T10:11:35.330Z,51.65
2023-05-13T10:12:40.522Z,51.59
2023-05-13T10:13:45.730Z,51.54
2023-05-13T10:14:50.986Z,51.49
2023-05-13T10:15:56.341Z,51.41
2023-05-13T10:17:01.777Z,51.41
2023-05-13T10:18:10.007Z,51.36
2023-05-13T10:19:15.563Z,51.35
2023-05-13T10:20:20.986Z,51.33
2023-05-13T10:21:26.295Z,51.29
2023-05-13T10:22:31.504Z,51.26
2023-05-13T10:23:36.733Z,51.23
2023-05-13T10:24:41.939Z,51.2
2023-05-13T10:25:47.135Z,51.17
2023-05-13T10:26:52.393Z,51.14
2023-05-13T10:27:57.561Z,51.09
2023-05-13T10:29:02.745Z,51.05
2023-05-13T10:30:08.133Z,51.02
2023-05-13T10:31:13.493Z,50.99
2023-05-13T10:32:19.087Z,50.97
2023-05-13T10:33:24.526Z,50.95
2023-05-13T10:34:29.971Z,50.91
2023-05-13T10:35:42.906Z,50.88
2023-05-13T10:36:48.326Z,50.83
2023-05-13T10:37:53.510Z,50.79
2023-05-13T10:38:58.759Z,50.75
2023-05-13T10:40:06.382Z,50.72
2023-05-13T10:41:11.639Z,50.69
2023-05-13T10:42:16.831Z,50.66
2023-05-13T10:43:22.046Z,50.64
2023-05-13T10:44:27.217Z,50.63
2023-05-13T10:45:32.387Z,50.6
2023-05-13T10:46:37.870Z,50.58
2023-05-13T10:47:43.434Z,50.56
2023-05-13T10:48:48.887Z,50.53
2023-05-13T10:49:54.174Z,50.51
2023-05-13T10:50:59.326Z,50.5
2023-05-13T10:52:04.571Z,50.49
2023-05-13T10:53:09.755Z,50.46
2023-05-13T10:54:14.954Z,50.44
2023-05-13T10:55:20.233Z,50.42
2023-05-13T10:56:25.481Z,50.4
2023-05-13T10:57:30.631Z,50.37
2023-05-13T10:58:35.827Z,50.35
2023-05-13T10:59:40.966Z,50.34
2023-05-13T11:00:46.212Z,50.31
2023-05-13T11:01:54.737Z,50.29
2023-05-13T11:03:00.299Z,50.28
2023-05-13T11:04:06.322Z,50.27
2023-05-13T11:05:11.730Z,50.26
2023-05-13T11:06:16.932Z,50.26
2023-05-13T11:07:22.151Z,50.25
2023-05-13T11:08:27.424Z,50.23
2023-05-13T11:09:32.645Z,50.25
2023-05-13T11:10:37.884Z,50.24
2023-05-13T11:11:43.091Z,50.22
2023-05-13T11:12:48.276Z,50.21
2023-05-13T11:13:53.485Z,50.19
2023-05-13T11:14:58.767Z,50.2
2023-05-13T11:16:04.049Z,50.19
2023-05-13T11:17:09.268Z,50.18
2023-05-13T11:18:14.717Z,50.17
2023-05-13T11:19:19.922Z,50.17
2023-05-13T11:20:25.536Z,50.17
2023-05-13T11:21:30.767Z,50.18
2023-05-13T11:22:35.981Z,50.18
2023-05-13T11:23:41.147Z,50.18
2023-05-13T11:24:46.305Z,50.17
2023-05-13T11:25:51.511Z,50.15
2023-05-13T11:26:56.690Z,50.13
2023-05-13T11:28:01.873Z,50.12
2023-05-13T11:29:07.073Z,50.1
2023-05-13T11:30:12.700Z,50.1
2023-05-13T11:31:18.046Z,50.12
2023-05-13T11:32:23.332Z,50.16
2023-05-13T11:33:28.539Z,50.18
2023-05-13T11:34:33.764Z,50.19
2023-05-13T11:35:39.030Z,50.19
2023-05-13T11:36:44.236Z,50.2
2023-05-13T11:37:49.616Z,50.22
2023-05-13T11:38:54.956Z,50.23
2023-05-13T11:40:00.216Z,50.25
2023-05-13T11:41:05.709Z,50.27
2023-05-13T11:42:11.296Z,50.28
2023-05-13T11:43:16.583Z,50.31
2023-05-13T11:44:21.806Z,50.33
2023-05-13T11:45:27.683Z,50.35
2023-05-13T11:46:33.386Z,50.35
2023-05-13T11:47:39.033Z,50.37
2023-05-13T11:48:44.406Z,50.41
2023-05-13T11:49:50.245Z,50.4
2023-05-13T11:50:55.837Z,50.46
2023-05-13T11:52:01.184Z,50.46
2023-05-13T11:53:06.467Z,50.48
2023-05-13T11:54:11.762Z,50.53
2023-05-13T11:55:17.731Z,50.52
2023-05-13T11:56:22.977Z,50.54
2023-05-13T11:57:28.268Z,50.55
2023-05-13T11:58:33.527Z,50.59
2023-05-13T11:59:50.601Z,50.61
2023-05-13T12:00:55.834Z,50.65
2023-05-13T12:02:01.377Z,50.66
2023-05-13T12:03:07.170Z,50.71
2023-05-13T12:04:12.501Z,50.69
2023-05-13T12:05:17.963Z,50.67
2023-05-13T12:06:23.490Z,50.72
2023-05-13T12:07:29.169Z,50.69
2023-05-13T12:08:34.451Z,50.69
2023-05-13T12:09:39.871Z,50.73
2023-05-13T12:10:45.118Z,50.79
2023-05-13T12:11:50.410Z,50.76
2023-05-13T12:12:55.616Z,50.75
2023-05-13T12:14:00.837Z,50.72
2023-05-13T12:15:06.074Z,50.72
2023-05-13T12:16:11.403Z,50.69
2023-05-13T12:17:16.652Z,50.67
2023-05-13T12:18:21.838Z,50.65
2023-05-13T12:19:27.012Z,50.65
2023-05-13T12:20:32.258Z,50.62
2023-05-13T12:21:37.651Z,50.6
2023-05-13T12:22:43.070Z,50.61
2023-05-13T12:23:48.304Z,50.61
2023-05-13T12:24:53.837Z,50.62
2023-05-13T12:25:59.012Z,50.65
2023-05-13T12:27:04.501Z,50.65
2023-05-13T12:28:09.794Z,50.66
2023-05-13T12:29:14.984Z,50.68
2023-05-13T12:30:20.181Z,50.68
2023-05-13T12:31:25.543Z,50.73
2023-05-13T12:32:30.814Z,50.73
2023-05-13T12:33:36.071Z,50.74
2023-05-13T12:34:41.424Z,50.75
2023-05-13T12:35:46.752Z,50.79
2023-05-13T12:36:52.241Z,50.81
2023-05-13T12:37:57.517Z,50.86
2023-05-13T12:39:04.015Z,50.91
2023-05-13T12:40:09.485Z,50.92
2023-05-13T12:41:14.774Z,50.92
2023-05-13T12:42:20.086Z,50.96
2023-05-13T12:43:25.314Z,50.98
2023-05-13T12:44:30.774Z,51.02
2023-05-13T12:45:37.386Z,51
2023-05-13T12:46:44.343Z,51.03
2023-05-13T12:47:49.604Z,51.06
2023-05-13T12:48:55.049Z,51.07
2023-05-13T12:50:00.226Z,51.08
2023-05-13T12:51:05.571Z,51.11
2023-05-13T12:52:10.931Z,51.14
2023-05-13T12:53:16.198Z,51.14
2023-05-13T12:54:21.562Z,51.18
2023-05-13T12:55:27.119Z,51.17
2023-05-13T12:56:32.415Z,51.17
2023-05-13T12:57:37.848Z,51.18
2023-05-13T12:58:43.370Z,51.21
2023-05-13T12:59:48.875Z,51.21
2023-05-13T13:00:54.347Z,51.23
2023-05-13T13:01:59.524Z,51.27
2023-05-13T13:03:05.081Z,51.27
2023-05-13T13:04:11.071Z,51.29
2023-05-13T13:05:16.735Z,51.32
2023-05-13T13:06:22.118Z,51.33
2023-05-13T13:07:27.451Z,51.34
2023-05-13T13:08:33.413Z,51.34
2023-05-13T13:09:38.759Z,51.38
2023-05-13T13:10:44.222Z,51.42
2023-05-13T13:11:49.522Z,51.42
2023-05-13T13:12:54.701Z,51.49
2023-05-13T13:14:00.077Z,51.49
2023-05-13T13:15:05.352Z,51.52
2023-05-13T13:16:10.821Z,51.53
2023-05-13T13:17:16.345Z,51.53
2023-05-13T13:18:21.611Z,51.52
2023-05-13T13:19:27.230Z,51.58
2023-05-13T13:20:32.595Z,51.58
2023-05-13T13:21:37.781Z,51.62
2023-05-13T13:22:43.142Z,51.64
2023-05-13T13:23:48.428Z,51.62
2023-05-13T13:24:53.861Z,51.67
2023-05-13T13:25:59.288Z,51.66
2023-05-13T13:27:04.698Z,51.63
2023-05-13T13:28:09.905Z,51.82
2023-05-13T13:29:15.115Z,51.8
2023-05-13T13:30:20.340Z,51.76
2023-05-13T13:31:25.597Z,51.82
2023-05-13T13:32:30.945Z,51.84
2023-05-13T13:33:36.186Z,51.84
2023-05-13T13:34:43.951Z,51.84
2023-05-13T13:35:49.142Z,51.8
2023-05-13T13:36:54.414Z,51.76
2023-05-13T13:37:59.596Z,51.72
2023-05-13T13:39:04.827Z,51.7
2023-05-13T13:40:12.773Z,51.65
2023-05-13T13:41:17.933Z,51.65
2023-05-13T13:42:33.709Z,51.64
2023-05-13T13:43:47.970Z,51.61
2023-05-13T13:44:53.318Z,51.62
2023-05-13T13:45:58.631Z,51.59
2023-05-13T13:47:03.877Z,51.58
2023-05-13T13:48:09.482Z,51.57
2023-05-13T13:49:25.915Z,51.55
2023-05-13T13:50:31.129Z,51.52
2023-05-13T13:51:36.357Z,51.52
2023-05-13T13:52:41.552Z,51.52
2023-05-13T13:53:46.768Z,51.52
2023-05-13T13:54:51.964Z,51.53
2023-05-13T13:55:57.132Z,51.52
2023-05-13T13:57:02.314Z,51.51
2023-05-13T13:58:07.490Z,51.47
2023-05-13T13:59:12.758Z,51.5
2023-05-13T14:00:17.967Z,51.5
2023-05-13T14:01:23.316Z,51.49
2023-05-13T14:02:28.880Z,51.5
2023-05-13T14:03:34.513Z,51.49
2023-05-13T14:04:39.932Z,51.46
2023-05-13T14:05:45.244Z,51.45